Aviation Digital Data Service (ADDS)

Output produced by METARs form (2056 UTC 18 October 2018)
found at http://aviationweather.gov/metar/data/
 
METAR text: KMHR 182045Z 30004KT 10SM SKC 25/02 A3008
Conditions at: KMHR (MATHER FIELD , CA, US) observed 2045 UTC 18 October 2018
Temperature: 25.0°C (77°F)
Dewpoint: 2.0°C (36°F) [RH = 22%]
Pressure (altimeter): 30.08 inches Hg (1018.7 mb)
Winds: from the WNW (300 degrees) at 5 MPH (4 knots; 2.1 m/s)
Visibility: 10 or more miles (16+ km)
Ceiling: at least 12,000 feet AGL
Clouds: clear skies
Weather: no significant weather observed at this time

Forecast for: KMHR (MATHER FIELD , CA, US)
Text: KMHR 181720Z 1818/1918 VRB05KT P6SM SKC
Forecast period: 1800 UTC 18 October 2018 to 1800 UTC 19 October 2018
Forecast type: FROM: standard forecast or significant change
Winds: variable direction winds at 6 MPH (5 knots; 2.6 m/s)
Visibility: 6 or more miles 10+ km)
Clouds: clear skies
Weather: no significant weather forecast for this period